createdAt,value
2018-08-24T00:02:19.711Z,100663.10
2018-08-24T00:04:48.586Z,100657.87
2018-08-24T00:07:17.577Z,100660.86
2018-08-24T00:09:47.252Z,100672.09
2018-08-24T00:12:16.156Z,100677.91
2018-08-24T00:14:45.032Z,100688.11
2018-08-24T00:17:19.247Z,100682.83
2018-08-24T00:19:48.139Z,100688.00
2018-08-24T00:22:17.052Z,100686.06
2018-08-24T00:24:46.124Z,100689.38
2018-08-24T00:27:15.012Z,100685.97
2018-08-24T00:29:43.882Z,100676.16
2018-08-24T00:32:12.762Z,100682.73
2018-08-24T00:34:41.662Z,100670.87
2018-08-24T00:37:10.581Z,100667.97
2018-08-24T00:39:42.206Z,100661.96
2018-08-24T00:42:12.772Z,100655.42
2018-08-24T00:44:42.039Z,100651.63
2018-08-24T00:47:10.976Z,100659.28
2018-08-24T00:49:39.889Z,100656.03
2018-08-24T00:52:09.120Z,100655.17
2018-08-24T00:54:38.019Z,100651.14
2018-08-24T00:57:07.033Z,100648.38
2018-08-24T00:59:35.900Z,100650.45
2018-08-24T01:02:04.822Z,100654.73
2018-08-24T01:04:34.281Z,100655.52
2018-08-24T01:07:08.763Z,100654.85
2018-08-24T01:09:38.313Z,100659.95
2018-08-24T01:12:12.416Z,100656.23
2018-08-24T01:14:42.801Z,100662.78
2018-08-24T01:17:16.894Z,100662.27
2018-08-24T01:19:46.328Z,100659.27
2018-08-24T01:22:15.543Z,100656.16
2018-08-24T01:24:44.460Z,100652.06
2018-08-24T01:27:13.324Z,100646.08
2018-08-24T01:29:43.134Z,100647.25
2018-08-24T01:32:12.022Z,100642.64
2018-08-24T01:34:40.874Z,100646.94
2018-08-24T01:37:09.749Z,100646.09
2018-08-24T01:39:38.700Z,100648.64
2018-08-24T01:42:07.640Z,100647.23
2018-08-24T01:44:36.485Z,100633.08
2018-08-24T01:47:05.420Z,100641.28
2018-08-24T01:49:34.290Z,100646.52
2018-08-24T01:52:03.174Z,100647.88
2018-08-24T01:54:32.046Z,100647.61
2018-08-24T01:57:00.934Z,100647.07
2018-08-24T01:59:29.840Z,100643.80
2018-08-24T02:01:58.695Z,100653.62
2018-08-24T02:04:27.537Z,100654.37
2018-08-24T02:06:56.452Z,100652.80
2018-08-24T02:09:25.348Z,100651.70
2018-08-24T02:11:54.247Z,100651.18
2018-08-24T02:14:28.445Z,100646.27
2018-08-24T02:16:57.247Z,100651.46
2018-08-24T02:19:31.433Z,100645.16
2018-08-24T02:22:05.629Z,100653.62
2018-08-24T02:24:34.544Z,100649.00
2018-08-24T02:27:03.401Z,100640.77
2018-08-24T02:29:32.313Z,100637.01
2018-08-24T02:32:01.249Z,100647.92
2018-08-24T02:34:30.174Z,100643.55
2018-08-24T02:36:59.055Z,100641.36
2018-08-24T02:39:27.975Z,100638.55
2018-08-24T02:41:56.914Z,100634.58
2018-08-24T02:44:25.801Z,100638.66
2018-08-24T02:46:54.700Z,100642.98
2018-08-24T02:49:23.608Z,100639.50
2018-08-24T02:51:52.545Z,100645.22
2018-08-24T02:54:22.440Z,100636.44
2018-08-24T02:56:51.306Z,100635.10
2018-08-24T02:59:20.217Z,100637.56
2018-08-24T03:01:49.171Z,100624.46
2018-08-24T03:04:18.049Z,100629.64
2018-08-24T03:06:47.005Z,100630.55
2018-08-24T03:09:15.877Z,100628.58
2018-08-24T03:11:44.761Z,100628.88
2018-08-24T03:14:13.663Z,100629.66
2018-08-24T03:16:46.707Z,100632.95
2018-08-24T03:19:15.597Z,100628.27
2018-08-24T03:21:44.498Z,100631.84
2018-08-24T03:24:13.416Z,100635.12
2018-08-24T03:26:42.320Z,100647.11
2018-08-24T03:29:11.261Z,100638.91
2018-08-24T03:31:40.136Z,100637.30
2018-08-24T03:34:09.048Z,100635.11
2018-08-24T03:36:37.932Z,100637.06
2018-08-24T03:39:07.974Z,100643.66
2018-08-24T03:41:37.029Z,100647.73
2018-08-24T03:44:05.962Z,100653.41
2018-08-24T03:46:34.880Z,100651.20
2018-08-24T03:49:04.835Z,100649.59
2018-08-24T03:51:33.760Z,100644.14
2018-08-24T03:54:06.786Z,100650.11
2018-08-24T03:56:35.680Z,100656.92
2018-08-24T03:59:05.609Z,100655.59
2018-08-24T04:01:34.592Z,100655.25
2018-08-24T04:04:04.511Z,100652.35
2018-08-24T04:06:33.374Z,100650.69
2018-08-24T04:09:02.316Z,100650.94
2018-08-24T04:11:31.199Z,100659.89
2018-08-24T04:14:00.151Z,100663.46
2018-08-24T04:16:34.252Z,100663.45
2018-08-24T04:19:03.346Z,100664.01
2018-08-24T04:21:32.221Z,100669.44
2018-08-24T04:24:01.266Z,100666.23
2018-08-24T04:26:30.216Z,100672.50
2018-08-24T04:28:59.171Z,100664.05
2018-08-24T04:31:28.096Z,100673.57
2018-08-24T04:33:56.961Z,100668.40
2018-08-24T04:36:25.955Z,100667.87
2018-08-24T04:38:54.904Z,100670.06
2018-08-24T04:41:24.845Z,100670.30
2018-08-24T04:43:53.914Z,100677.93
2018-08-24T04:46:23.172Z,100672.20
2018-08-24T04:48:52.093Z,100671.69
2018-08-24T04:51:21.000Z,100670.06
2018-08-24T04:53:49.907Z,100664.83
2018-08-24T04:56:18.805Z,100666.52
2018-08-24T04:58:47.685Z,100661.62
2018-08-24T05:01:16.658Z,100668.41
2018-08-24T05:03:46.661Z,100674.37
2018-08-24T05:06:15.630Z,100671.44
2018-08-24T05:08:45.586Z,100667.34
2018-08-24T05:11:14.465Z,100674.13
2018-08-24T05:13:43.532Z,100670.59
2018-08-24T05:16:13.308Z,100671.67
2018-08-24T05:18:42.160Z,100673.56
2018-08-24T05:21:11.118Z,100672.77
2018-08-24T05:23:40.095Z,100679.31
2018-08-24T05:26:09.030Z,100681.48
2018-08-24T05:28:37.893Z,100683.69
2018-08-24T05:31:06.816Z,100676.03
2018-08-24T05:33:36.756Z,100682.58
2018-08-24T05:36:05.834Z,100684.99
2018-08-24T05:38:34.731Z,100682.30
2018-08-24T05:41:03.603Z,100694.02
2018-08-24T05:43:32.497Z,100695.95
2018-08-24T05:46:01.421Z,100696.72
2018-08-24T05:48:30.304Z,100697.55
2018-08-24T05:50:59.204Z,100704.36
2018-08-24T05:53:28.102Z,100698.88
2018-08-24T05:55:57.009Z,100704.36
2018-08-24T05:58:25.923Z,100707.33
2018-08-24T06:00:54.966Z,100702.20
2018-08-24T06:03:24.077Z,100701.12
2018-08-24T06:05:58.164Z,100707.37
2018-08-24T06:08:27.418Z,100710.92
2018-08-24T06:10:57.451Z,100713.38
2018-08-24T06:13:26.355Z,100706.84
2018-08-24T06:15:55.299Z,100698.11
2018-08-24T06:18:24.190Z,100713.38
2018-08-24T06:20:53.078Z,100704.64
2018-08-24T06:23:22.036Z,100706.00
2018-08-24T06:25:50.945Z,100709.56
2018-08-24T06:28:19.810Z,100722.34
2018-08-24T06:30:48.695Z,100721.54
2018-08-24T06:33:17.582Z,100730.52
2018-08-24T06:35:46.512Z,100724.55
2018-08-24T06:38:15.388Z,100725.06
2018-08-24T06:40:44.435Z,100723.17
2018-08-24T06:43:13.355Z,100734.88
2018-08-24T06:45:42.256Z,100729.71
2018-08-24T06:48:12.274Z,100727.80
2018-08-24T06:50:41.133Z,100742.77
2018-08-24T06:53:10.084Z,100743.05
2018-08-24T06:55:38.904Z,100747.38
2018-08-24T06:58:07.815Z,100745.16
2018-08-24T07:00:36.840Z,100757.40
2018-08-24T07:03:05.754Z,100753.94
2018-08-24T07:05:34.632Z,100755.87
2018-08-24T07:08:03.554Z,100758.04
2018-08-24T07:10:32.443Z,100762.13
2018-08-24T07:13:01.412Z,100760.48
2018-08-24T07:15:30.274Z,100771.94
2018-08-24T07:18:02.114Z,100773.58
2018-08-24T07:20:31.643Z,100781.94
2018-08-24T07:23:00.548Z,100779.02
2018-08-24T07:25:29.472Z,100778.47
2018-08-24T07:27:58.384Z,100786.63
2018-08-24T07:30:27.621Z,100779.02
2018-08-24T07:32:56.516Z,100774.10
2018-08-24T07:35:25.417Z,100780.38
2018-08-24T07:37:54.297Z,100788.00
2018-08-24T07:40:23.173Z,100794.53
2018-08-24T07:42:52.041Z,100791.53
2018-08-24T07:45:20.941Z,100788.28
2018-08-24T07:47:49.837Z,100806.48
2018-08-24T07:50:19.803Z,100807.06
2018-08-24T07:52:48.650Z,100809.52
2018-08-24T07:55:17.531Z,100812.44
2018-08-24T07:57:46.422Z,100813.22
2018-08-24T08:00:15.258Z,100822.41
2018-08-24T08:02:45.548Z,100820.27
2018-08-24T08:05:15.382Z,100814.32
2018-08-24T08:07:44.466Z,100823.55
2018-08-24T08:10:13.341Z,100831.97
2018-08-24T08:12:42.301Z,100835.00
2018-08-24T08:15:11.408Z,100840.48
2018-08-24T08:17:40.942Z,100837.97
2018-08-24T08:20:10.379Z,100839.23
2018-08-24T08:22:39.379Z,100837.17
2018-08-24T08:25:08.376Z,100843.03
2018-08-24T08:27:37.267Z,100846.55
2018-08-24T08:30:07.299Z,100845.29
2018-08-24T08:32:36.168Z,100846.18
2018-08-24T08:35:05.974Z,100839.64
2018-08-24T08:37:35.561Z,100848.20
2018-08-24T08:40:04.564Z,100848.45
2018-08-24T08:42:33.445Z,100846.48
2018-08-24T08:45:02.425Z,100853.80
2018-08-24T08:47:31.286Z,100859.64
2018-08-24T08:50:00.175Z,100864.85
2018-08-24T08:52:29.056Z,100868.94
2018-08-24T08:54:57.939Z,100867.30
2018-08-24T08:57:26.832Z,100864.31
2018-08-24T08:59:55.731Z,100866.77
2018-08-24T09:02:24.636Z,100875.77
2018-08-24T09:04:53.522Z,100873.30
2018-08-24T09:07:22.467Z,100874.64
2018-08-24T09:09:51.348Z,100873.55
2018-08-24T09:12:20.242Z,100878.23
2018-08-24T09:14:49.212Z,100870.61
2018-08-24T09:17:23.484Z,100867.05
2018-08-24T09:19:57.606Z,100876.59
2018-08-24T09:22:31.778Z,100881.23
2018-08-24T09:25:05.869Z,100891.58
2018-08-24T09:27:37.606Z,100882.84
2018-08-24T09:30:06.658Z,100882.61
2018-08-24T09:32:35.686Z,100880.70
2018-08-24T09:35:04.555Z,100886.97
2018-08-24T09:37:36.756Z,100892.70
2018-08-24T09:40:06.381Z,100904.13
2018-08-24T09:42:35.253Z,100907.89
2018-08-24T09:45:04.591Z,100908.45
2018-08-24T09:47:38.775Z,100907.66
2018-08-24T09:50:13.318Z,100894.04
2018-08-24T09:52:46.343Z,100905.25
2018-08-24T09:55:15.271Z,100902.53
2018-08-24T09:57:44.156Z,100895.40
2018-08-24T10:00:13.031Z,100901.69
2018-08-24T10:02:43.520Z,100904.66
2018-08-24T10:05:17.613Z,100897.04
2018-08-24T10:07:52.601Z,100903.58
2018-08-24T10:10:21.524Z,100898.70
2018-08-24T10:12:50.441Z,100903.08
2018-08-24T10:15:19.345Z,100889.97
2018-08-24T10:17:48.197Z,100892.17
2018-08-24T10:20:17.068Z,100893.52
2018-08-24T10:22:46.488Z,100891.58
2018-08-24T10:25:16.358Z,100890.46
2018-08-24T10:27:45.271Z,100890.48
2018-08-24T10:30:14.128Z,100888.56
2018-08-24T10:32:43.095Z,100883.40
2018-08-24T10:35:12.053Z,100891.28
2018-08-24T10:37:41.000Z,100891.48
2018-08-24T10:40:09.895Z,100896.92
2018-08-24T10:42:38.803Z,100898.07
2018-08-24T10:45:07.655Z,100898.11
2018-08-24T10:47:36.616Z,100892.06
2018-08-24T10:50:06.721Z,100888.73
2018-08-24T10:52:35.819Z,100890.16
2018-08-24T10:55:04.759Z,100891.53
2018-08-24T10:57:33.633Z,100887.41
2018-08-24T11:00:02.509Z,100889.03
2018-08-24T11:02:32.832Z,100883.28
2018-08-24T11:05:01.735Z,100893.09
2018-08-24T11:07:30.639Z,100891.75
2018-08-24T11:10:00.888Z,100886.84
2018-08-24T11:12:33.383Z,100885.77
2018-08-24T11:15:04.079Z,100896.41
2018-08-24T11:17:38.001Z,100888.72
2018-08-24T11:20:06.928Z,100885.48
2018-08-24T11:22:36.004Z,100885.72
2018-08-24T11:25:05.033Z,100884.84
2018-08-24T11:27:34.583Z,100880.16
2018-08-24T11:30:03.858Z,100888.41
2018-08-24T11:32:32.829Z,100894.05
2018-08-24T11:35:01.814Z,100892.09
2018-08-24T11:37:30.713Z,100889.75
2018-08-24T11:39:59.677Z,100892.02
2018-08-24T11:42:28.534Z,100895.59
2018-08-24T11:44:57.406Z,100899.40
2018-08-24T11:47:26.277Z,100890.38
2018-08-24T11:49:55.181Z,100893.09
2018-08-24T11:52:25.160Z,100890.83
2018-08-24T11:54:54.061Z,100892.83
2018-08-24T11:57:22.987Z,100888.08
2018-08-24T11:59:52.218Z,100889.62
2018-08-24T12:02:21.288Z,100879.34
2018-08-24T12:04:50.501Z,100888.14
2018-08-24T12:07:19.621Z,100881.94
2018-08-24T12:09:48.775Z,100891.56
2018-08-24T12:12:17.697Z,100880.66
2018-08-24T12:14:46.573Z,100890.75
2018-08-24T12:17:20.632Z,100889.24
2018-08-24T12:19:49.512Z,100883.55
2018-08-24T12:22:18.534Z,100889.70
2018-08-24T12:24:47.503Z,100886.45
2018-08-24T12:27:16.369Z,100890.47
2018-08-24T12:29:45.246Z,100883.09
2018-08-24T12:32:14.131Z,100894.20
2018-08-24T12:34:43.166Z,100882.16
2018-08-24T12:37:13.128Z,100888.48
2018-08-24T12:39:43.053Z,100894.08
2018-08-24T12:42:12.557Z,100893.39
2018-08-24T12:44:42.007Z,100890.87
2018-08-24T12:47:12.007Z,100887.69
2018-08-24T12:49:41.320Z,100893.77
2018-08-24T12:52:10.241Z,100885.33
2018-08-24T12:54:39.207Z,100882.75
2018-08-24T12:57:08.292Z,100883.77
2018-08-24T12:59:37.200Z,100888.32
2018-08-24T13:02:06.105Z,100880.23
2018-08-24T13:04:35.008Z,100884.22
2018-08-24T13:07:03.874Z,100881.74
2018-08-24T13:09:33.400Z,100880.94
2018-08-24T13:12:02.288Z,100874.98
2018-08-24T13:14:31.175Z,100865.84
2018-08-24T13:17:00.076Z,100875.42
2018-08-24T13:19:29.043Z,100867.62
2018-08-24T13:21:57.913Z,100864.88
2018-08-24T13:24:27.197Z,100851.43
2018-08-24T13:26:56.091Z,100857.27
2018-08-24T13:29:24.941Z,100864.48
2018-08-24T13:31:53.883Z,100858.80
2018-08-24T13:34:22.789Z,100869.41
2018-08-24T13:36:51.739Z,100867.83
2018-08-24T13:39:20.644Z,100859.34
2018-08-24T13:41:49.515Z,100861.56
2018-08-24T13:44:18.415Z,100869.72
2018-08-24T13:46:47.505Z,100867.28
2018-08-24T13:49:16.397Z,100860.17
2018-08-24T13:51:45.275Z,100863.47
2018-08-24T13:54:14.171Z,100855.80
2018-08-24T13:56:43.034Z,100850.01
2018-08-24T13:59:12.021Z,100858.00
2018-08-24T14:01:40.912Z,100853.88
2018-08-24T14:04:09.852Z,100847.27
2018-08-24T14:06:38.787Z,100840.45
2018-08-24T14:09:08.978Z,100835.25
2018-08-24T14:11:37.882Z,100841.94
2018-08-24T14:14:06.786Z,100840.30
2018-08-24T14:16:36.130Z,100839.22
2018-08-24T14:19:05.077Z,100832.28
2018-08-24T14:21:33.996Z,100830.97
2018-08-24T14:24:02.877Z,100830.83
2018-08-24T14:26:31.942Z,100837.88
2018-08-24T14:29:00.837Z,100825.72
2018-08-24T14:31:29.868Z,100832.84
2018-08-24T14:33:58.737Z,100825.23
2018-08-24T14:36:27.743Z,100829.25
2018-08-24T14:38:56.702Z,100827.09
2018-08-24T14:41:25.694Z,100832.83
2018-08-24T14:43:54.772Z,100839.92
2018-08-24T14:46:23.620Z,100833.19
2018-08-24T14:48:53.697Z,100843.31
2018-08-24T14:51:23.614Z,100838.52
2018-08-24T14:53:53.517Z,100834.69
2018-08-24T14:56:23.496Z,100837.68
2018-08-24T14:58:52.421Z,100832.18
2018-08-24T15:01:21.336Z,100831.34
2018-08-24T15:03:50.385Z,100822.56
2018-08-24T15:06:19.373Z,100825.86
2018-08-24T15:08:48.265Z,100828.34
2018-08-24T15:11:17.222Z,100831.38
2018-08-24T15:13:46.050Z,100826.95
2018-08-24T15:16:14.959Z,100829.36
2018-08-24T15:18:43.869Z,100827.89
2018-08-24T15:21:13.766Z,100826.38
2018-08-24T15:23:42.660Z,100823.60
2018-08-24T15:26:11.592Z,100826.94
2018-08-24T15:28:40.590Z,100818.75
2018-08-24T15:31:09.571Z,100830.98
2018-08-24T15:33:38.581Z,100835.36
2018-08-24T15:36:07.544Z,100831.91
2018-08-24T15:38:36.557Z,100826.41
2018-08-24T15:41:05.548Z,100832.22
2018-08-24T15:43:34.549Z,100835.41
2018-08-24T15:46:03.517Z,100828.66
2018-08-24T15:48:32.395Z,100822.31
2018-08-24T15:51:01.296Z,100834.55
2018-08-24T15:53:30.353Z,100831.39
2018-08-24T15:55:59.307Z,100832.73
2018-08-24T15:58:28.188Z,100848.34
2018-08-24T16:00:57.176Z,100841.20
2018-08-24T16:03:26.081Z,100839.38
2018-08-24T16:05:54.953Z,100845.91
2018-08-24T16:08:23.867Z,100843.49
2018-08-24T16:10:52.845Z,100840.45
2018-08-24T16:13:21.737Z,100841.51
2018-08-24T16:15:50.733Z,100843.66
2018-08-24T16:18:23.249Z,100840.51
2018-08-24T16:20:54.213Z,100833.92
2018-08-24T16:23:23.213Z,100843.76
2018-08-24T16:25:52.155Z,100844.84
2018-08-24T16:28:21.125Z,100849.46
2018-08-24T16:30:50.038Z,100842.86
2018-08-24T16:33:19.223Z,100842.65
2018-08-24T16:35:48.109Z,100841.03
2018-08-24T16:38:17.547Z,100842.34
2018-08-24T16:40:46.473Z,100837.72
2018-08-24T16:43:15.787Z,100836.48
2018-08-24T16:45:44.912Z,100830.98
2018-08-24T16:48:13.817Z,100841.36
2018-08-24T16:50:42.753Z,100838.88
2018-08-24T16:53:11.957Z,100845.93
2018-08-24T16:55:41.891Z,100837.44
2018-08-24T16:58:11.075Z,100836.11
2018-08-24T17:00:39.898Z,100839.17
2018-08-24T17:03:09.889Z,100827.63
2018-08-24T17:05:38.755Z,100834.69
2018-08-24T17:08:07.909Z,100830.92
2018-08-24T17:10:36.908Z,100828.68
2018-08-24T17:13:05.883Z,100819.42
2018-08-24T17:15:34.912Z,100817.80
2018-08-24T17:18:03.789Z,100821.08
2018-08-24T17:20:33.753Z,100816.45
2018-08-24T17:23:02.652Z,100811.93
2018-08-24T17:25:31.497Z,100815.66
2018-08-24T17:28:00.352Z,100816.00
2018-08-24T17:30:29.310Z,100815.73
2018-08-24T17:32:58.190Z,100818.97
2018-08-24T17:35:27.111Z,100814.34
2018-08-24T17:37:57.044Z,100805.63
2018-08-24T17:40:25.999Z,100816.47
2018-08-24T17:42:54.907Z,100809.68
2018-08-24T17:45:24.860Z,100811.59
2018-08-24T17:47:53.842Z,100815.66
2018-08-24T17:50:22.804Z,100806.69
2018-08-24T17:52:51.712Z,100808.59
2018-08-24T17:55:20.701Z,100808.70
2018-08-24T17:57:49.716Z,100808.09
2018-08-24T18:00:18.737Z,100809.22
2018-08-24T18:02:47.678Z,100802.13
2018-08-24T18:05:16.672Z,100808.43
2018-08-24T18:07:45.800Z,100802.66
2018-08-24T18:10:14.752Z,100802.17
2018-08-24T18:12:44.649Z,100806.25
2018-08-24T18:15:13.707Z,100799.93
2018-08-24T18:17:42.484Z,100809.48
2018-08-24T18:20:11.350Z,100806.78
2018-08-24T18:22:40.218Z,100813.30
2018-08-24T18:25:10.184Z,100810.56
2018-08-24T18:27:39.092Z,100810.02
2018-08-24T18:30:08.220Z,100803.22
2018-08-24T18:32:37.158Z,100808.67
2018-08-24T18:35:06.146Z,100806.23
2018-08-24T18:37:35.117Z,100813.06
2018-08-24T18:40:04.114Z,100813.05
2018-08-24T18:42:33.005Z,100809.25
2018-08-24T18:45:01.872Z,100804.29
2018-08-24T18:47:30.839Z,100803.50
2018-08-24T18:49:59.689Z,100804.33
2018-08-24T18:52:28.588Z,100806.53
2018-08-24T18:54:57.492Z,100813.58
2018-08-24T18:57:26.399Z,100810.34
2018-08-24T18:59:55.314Z,100820.84
2018-08-24T19:02:24.385Z,100814.12
2018-08-24T19:04:53.263Z,100815.23
2018-08-24T19:07:22.214Z,100815.25
2018-08-24T19:09:51.119Z,100818.83
2018-08-24T19:12:26.602Z,100808.99
2018-08-24T19:14:56.432Z,100809.80
2018-08-24T19:17:30.644Z,100812.00
2018-08-24T19:20:04.786Z,100811.44
2018-08-24T19:22:33.715Z,100809.52
2018-08-24T19:25:02.786Z,100814.96
2018-08-24T19:27:37.988Z,100814.95
2018-08-24T19:30:12.317Z,100813.08
2018-08-24T19:32:41.269Z,100808.16
2018-08-24T19:35:10.149Z,100808.72
2018-08-24T19:37:40.098Z,100814.73
2018-08-24T19:40:15.182Z,100814.98
2018-08-24T19:42:45.100Z,100811.73
2018-08-24T19:45:15.027Z,100812.53
2018-08-24T19:47:49.329Z,100816.63
2018-08-24T19:50:18.194Z,100810.36
2018-08-24T19:52:47.071Z,100809.24
2018-08-24T19:55:16.000Z,100799.98
2018-08-24T19:57:50.158Z,100797.54
2018-08-24T20:00:19.146Z,100794.81
2018-08-24T20:02:48.053Z,100798.63
2018-08-24T20:05:17.071Z,100789.37
2018-08-24T20:07:51.294Z,100786.92
2018-08-24T20:10:21.204Z,100785.56
2018-08-24T20:12:50.084Z,100783.64
2018-08-24T20:17:26.188Z,100785.82
2018-08-24T20:19:55.239Z,100780.63
2018-08-24T20:22:24.246Z,100777.11
2018-08-24T20:24:53.218Z,100776.30
2018-08-24T20:27:22.086Z,100778.16
2018-08-24T20:29:51.144Z,100774.09
2018-08-24T20:32:21.145Z,100766.75
2018-08-24T20:34:50.025Z,100765.59
2018-08-24T20:37:19.624Z,100762.59
2018-08-24T20:39:48.544Z,100768.56
2018-08-24T20:42:17.382Z,100770.48
2018-08-24T20:44:47.424Z,100770.75
2018-08-24T20:47:16.363Z,100774.02
2018-08-24T20:49:45.174Z,100772.08
2018-08-24T20:52:14.101Z,100770.65
2018-08-24T20:54:43.407Z,100764.13
2018-08-24T20:57:12.302Z,100764.38
2018-08-24T20:59:41.217Z,100761.92
2018-08-24T21:02:10.397Z,100754.11
2018-08-24T21:04:39.871Z,100747.31
2018-08-24T21:07:08.945Z,100747.83
2018-08-24T21:09:38.029Z,100740.16
2018-08-24T21:12:07.371Z,100744.30
2018-08-24T21:14:36.310Z,100736.88
2018-08-24T21:17:05.167Z,100736.09
2018-08-24T21:19:34.051Z,100734.73
2018-08-24T21:22:02.970Z,100733.59
2018-08-24T21:24:31.862Z,100738.48
2018-08-24T21:27:01.908Z,100741.53
2018-08-24T21:29:30.890Z,100740.47
2018-08-24T21:31:59.768Z,100745.42
2018-08-24T21:34:28.654Z,100741.59
2018-08-24T21:36:57.551Z,100739.10
2018-08-24T21:39:26.462Z,100742.48
2018-08-24T21:41:55.366Z,100746.83
2018-08-24T21:44:24.351Z,100752.81
2018-08-24T21:46:53.245Z,100745.84
2018-08-24T21:49:22.132Z,100746.59
2018-08-24T21:51:50.977Z,100751.45
2018-08-24T21:54:19.904Z,100746.27
2018-08-24T21:56:48.781Z,100744.19
2018-08-24T21:59:17.623Z,100747.70
2018-08-24T22:01:46.590Z,100741.67
2018-08-24T22:04:15.463Z,100740.70
2018-08-24T22:06:44.318Z,100740.73
2018-08-24T22:09:13.212Z,100738.84
2018-08-24T22:11:43.163Z,100733.17
2018-08-24T22:14:12.168Z,100732.39
2018-08-24T22:16:41.217Z,100734.53
2018-08-24T22:19:10.039Z,100739.19
2018-08-24T22:21:39.013Z,100738.34
2018-08-24T22:24:07.901Z,100744.84
2018-08-24T22:26:37.831Z,100747.30
2018-08-24T22:29:06.701Z,100741.34
2018-08-24T22:31:35.581Z,100748.69
2018-08-24T22:34:04.453Z,100736.69
2018-08-24T22:36:33.381Z,100742.71
2018-08-24T22:39:03.496Z,100744.58
2018-08-24T22:41:32.595Z,100744.59
2018-08-24T22:44:01.626Z,100739.70
2018-08-24T22:46:30.599Z,100735.63
2018-08-24T22:48:59.613Z,100741.61
2018-08-24T22:51:28.492Z,100734.47
2018-08-24T22:53:57.440Z,100735.26
2018-08-24T22:56:26.423Z,100739.08
2018-08-24T22:58:55.530Z,100741.80
2018-08-24T23:01:24.489Z,100739.58
2018-08-24T23:03:53.366Z,100735.23
2018-08-24T23:06:22.390Z,100728.75
2018-08-24T23:08:51.279Z,100725.48
2018-08-24T23:11:20.250Z,100725.36
2018-08-24T23:13:49.158Z,100714.55
2018-08-24T23:16:18.067Z,100714.73
2018-08-24T23:18:47.004Z,100706.33
2018-08-24T23:21:16.170Z,100708.00
2018-08-24T23:23:45.366Z,100708.54
2018-08-24T23:26:14.522Z,100701.19
2018-08-24T23:28:43.740Z,100696.98
2018-08-24T23:31:12.604Z,100697.14
2018-08-24T23:33:41.489Z,100686.45
2018-08-24T23:36:10.399Z,100689.49
2018-08-24T23:38:39.300Z,100682.61
2018-08-24T23:41:08.203Z,100679.21
2018-08-24T23:43:37.063Z,100678.30
2018-08-24T23:46:06.085Z,100662.59
2018-08-24T23:48:34.949Z,100664.98
2018-08-24T23:51:03.844Z,100655.77
2018-08-24T23:53:32.721Z,100654.91
2018-08-24T23:56:01.639Z,100655.94
2018-08-24T23:58:30.629Z,100662.47
